sensor_id;sensor_type;location;lat;lon;timestamp;P1;durP1;ratioP1;P2;durP2;ratioP2
21110;SDS011;10713;51.912;4.494;2023-08-30T00:00:51;10.57;;;4.32;;
21110;SDS011;10713;51.912;4.494;2023-08-30T00:03:16;7.28;;;3.45;;
21110;SDS011;10713;51.912;4.494;2023-08-30T00:05:42;8.57;;;3.95;;
21110;SDS011;10713;51.912;4.494;2023-08-30T00:08:07;7.20;;;3.63;;
21110;SDS011;10713;51.912;4.494;2023-08-30T00:10:33;8.02;;;3.80;;
21110;SDS011;10713;51.912;4.494;2023-08-30T00:12:59;6.38;;;3.45;;
21110;SDS011;10713;51.912;4.494;2023-08-30T00:15:24;6.78;;;3.42;;
21110;SDS011;10713;51.912;4.494;2023-08-30T00:17:50;8.25;;;3.38;;
21110;SDS011;10713;51.912;4.494;2023-08-30T00:20:17;5.88;;;2.83;;
21110;SDS011;10713;51.912;4.494;2023-08-30T00:22:45;6.82;;;3.20;;
21110;SDS011;10713;51.912;4.494;2023-08-30T00:25:10;7.43;;;3.60;;
21110;SDS011;10713;51.912;4.494;2023-08-30T00:27:36;8.45;;;3.67;;
21110;SDS011;10713;51.912;4.494;2023-08-30T00:30:01;8.48;;;3.63;;
21110;SDS011;10713;51.912;4.494;2023-08-30T00:32:27;5.63;;;3.17;;
21110;SDS011;10713;51.912;4.494;2023-08-30T00:34:52;8.00;;;3.60;;
21110;SDS011;10713;51.912;4.494;2023-08-30T00:37:17;7.15;;;3.05;;
21110;SDS011;10713;51.912;4.494;2023-08-30T00:39:43;8.35;;;3.63;;
21110;SDS011;10713;51.912;4.494;2023-08-30T00:42:08;8.27;;;3.47;;
21110;SDS011;10713;51.912;4.494;2023-08-30T00:44:34;7.22;;;3.83;;
21110;SDS011;10713;51.912;4.494;2023-08-30T00:47:03;8.88;;;3.70;;
21110;SDS011;10713;51.912;4.494;2023-08-30T00:49:29;8.77;;;3.15;;
21110;SDS011;10713;51.912;4.494;2023-08-30T00:51:55;8.27;;;4.03;;
21110;SDS011;10713;51.912;4.494;2023-08-30T00:54:21;8.70;;;3.88;;
21110;SDS011;10713;51.912;4.494;2023-08-30T00:56:47;9.50;;;4.57;;
21110;SDS011;10713;51.912;4.494;2023-08-30T00:59:13;7.63;;;3.65;;
21110;SDS011;10713;51.912;4.494;2023-08-30T01:01:39;6.95;;;3.55;;
21110;SDS011;10713;51.912;4.494;2023-08-30T01:04:05;9.77;;;3.75;;
21110;SDS011;10713;51.912;4.494;2023-08-30T01:06:30;9.68;;;3.78;;
21110;SDS011;10713;51.912;4.494;2023-08-30T01:08:56;7.97;;;3.53;;
21110;SDS011;10713;51.912;4.494;2023-08-30T01:11:28;7.30;;;3.60;;
21110;SDS011;10713;51.912;4.494;2023-08-30T01:14:08;9.15;;;3.72;;
21110;SDS011;10713;51.912;4.494;2023-08-30T01:16:37;6.70;;;3.42;;
21110;SDS011;10713;51.912;4.494;2023-08-30T01:19:04;6.10;;;3.00;;
21110;SDS011;10713;51.912;4.494;2023-08-30T01:22:28;5.70;;;3.38;;
21110;SDS011;10713;51.912;4.494;2023-08-30T01:27:41;8.63;;;3.78;;
21110;SDS011;10713;51.912;4.494;2023-08-30T01:30:08;11.48;;;4.65;;
21110;SDS011;10713;51.912;4.494;2023-08-30T01:32:36;9.73;;;4.00;;
21110;SDS011;10713;51.912;4.494;2023-08-30T01:35:03;8.95;;;3.90;;
21110;SDS011;10713;51.912;4.494;2023-08-30T01:37:30;10.82;;;3.92;;
21110;SDS011;10713;51.912;4.494;2023-08-30T01:39:58;9.98;;;3.55;;
21110;SDS011;10713;51.912;4.494;2023-08-30T01:42:25;8.30;;;3.65;;
21110;SDS011;10713;51.912;4.494;2023-08-30T01:44:51;8.20;;;3.30;;
21110;SDS011;10713;51.912;4.494;2023-08-30T01:47:22;6.60;;;3.25;;
21110;SDS011;10713;51.912;4.494;2023-08-30T01:49:49;6.75;;;3.65;;
21110;SDS011;10713;51.912;4.494;2023-08-30T01:52:15;10.13;;;3.70;;
21110;SDS011;10713;51.912;4.494;2023-08-30T01:54:41;7.55;;;3.38;;
21110;SDS011;10713;51.912;4.494;2023-08-30T01:57:09;9.10;;;3.58;;
21110;SDS011;10713;51.912;4.494;2023-08-30T01:59:34;5.53;;;2.90;;
21110;SDS011;10713;51.912;4.494;2023-08-30T02:01:59;9.07;;;3.47;;
21110;SDS011;10713;51.912;4.494;2023-08-30T02:04:25;8.10;;;4.07;;
21110;SDS011;10713;51.912;4.494;2023-08-30T02:06:54;8.82;;;4.32;;
21110;SDS011;10713;51.912;4.494;2023-08-30T02:09:29;8.25;;;4.13;;
21110;SDS011;10713;51.912;4.494;2023-08-30T02:11:57;9.57;;;3.90;;
21110;SDS011;10713;51.912;4.494;2023-08-30T02:14:29;10.75;;;4.05;;
21110;SDS011;10713;51.912;4.494;2023-08-30T02:16:57;10.70;;;4.28;;
21110;SDS011;10713;51.912;4.494;2023-08-30T02:19:22;8.55;;;4.30;;
21110;SDS011;10713;51.912;4.494;2023-08-30T02:21:48;8.38;;;3.80;;
21110;SDS011;10713;51.912;4.494;2023-08-30T02:24:14;11.48;;;4.65;;
21110;SDS011;10713;51.912;4.494;2023-08-30T02:26:39;10.25;;;4.68;;
21110;SDS011;10713;51.912;4.494;2023-08-30T02:29:05;8.30;;;4.28;;
21110;SDS011;10713;51.912;4.494;2023-08-30T02:31:30;8.85;;;4.43;;
21110;SDS011;10713;51.912;4.494;2023-08-30T02:33:56;9.70;;;4.50;;
21110;SDS011;10713;51.912;4.494;2023-08-30T02:36:21;9.93;;;4.18;;
21110;SDS011;10713;51.912;4.494;2023-08-30T02:38:46;10.82;;;4.53;;
21110;SDS011;10713;51.912;4.494;2023-08-30T02:41:12;8.18;;;4.18;;
21110;SDS011;10713;51.912;4.494;2023-08-30T02:43:37;9.88;;;4.88;;
21110;SDS011;10713;51.912;4.494;2023-08-30T02:46:03;10.48;;;4.53;;
21110;SDS011;10713;51.912;4.494;2023-08-30T02:48:29;13.45;;;4.97;;
21110;SDS011;10713;51.912;4.494;2023-08-30T02:50:54;11.68;;;4.50;;
21110;SDS011;10713;51.912;4.494;2023-08-30T02:53:20;9.18;;;4.00;;
21110;SDS011;10713;51.912;4.494;2023-08-30T02:55:46;9.70;;;4.70;;
21110;SDS011;10713;51.912;4.494;2023-08-30T02:58:12;8.82;;;4.55;;
21110;SDS011;10713;51.912;4.494;2023-08-30T03:00:38;11.38;;;4.65;;
21110;SDS011;10713;51.912;4.494;2023-08-30T03:03:03;10.43;;;4.90;;
21110;SDS011;10713;51.912;4.494;2023-08-30T03:05:29;15.82;;;5.35;;
21110;SDS011;10713;51.912;4.494;2023-08-30T03:07:54;9.85;;;4.30;;
21110;SDS011;10713;51.912;4.494;2023-08-30T03:10:19;11.15;;;4.85;;
21110;SDS011;10713;51.912;4.494;2023-08-30T03:12:45;11.18;;;4.93;;
21110;SDS011;10713;51.912;4.494;2023-08-30T03:15:10;11.40;;;4.78;;
21110;SDS011;10713;51.912;4.494;2023-08-30T03:17:36;8.88;;;4.50;;
21110;SDS011;10713;51.912;4.494;2023-08-30T03:20:02;14.63;;;5.32;;
21110;SDS011;10713;51.912;4.494;2023-08-30T03:22:28;12.20;;;4.85;;
21110;SDS011;10713;51.912;4.494;2023-08-30T03:24:54;13.00;;;5.00;;
21110;SDS011;10713;51.912;4.494;2023-08-30T03:27:19;13.32;;;4.93;;
21110;SDS011;10713;51.912;4.494;2023-08-30T03:29:45;11.20;;;4.25;;
21110;SDS011;10713;51.912;4.494;2023-08-30T03:32:13;13.23;;;5.50;;
21110;SDS011;10713;51.912;4.494;2023-08-30T03:34:46;11.35;;;4.75;;
21110;SDS011;10713;51.912;4.494;2023-08-30T03:37:15;10.00;;;4.75;;
21110;SDS011;10713;51.912;4.494;2023-08-30T03:39:41;13.23;;;5.00;;
21110;SDS011;10713;51.912;4.494;2023-08-30T03:42:07;11.25;;;4.90;;
21110;SDS011;10713;51.912;4.494;2023-08-30T03:44:32;13.95;;;5.55;;
21110;SDS011;10713;51.912;4.494;2023-08-30T03:46:57;10.35;;;4.97;;
21110;SDS011;10713;51.912;4.494;2023-08-30T03:49:23;13.65;;;5.50;;
21110;SDS011;10713;51.912;4.494;2023-08-30T03:51:48;12.35;;;5.50;;
21110;SDS011;10713;51.912;4.494;2023-08-30T03:54:14;22.77;;;5.25;;
21110;SDS011;10713;51.912;4.494;2023-08-30T03:56:41;11.30;;;4.65;;
21110;SDS011;10713;51.912;4.494;2023-08-30T03:59:07;14.18;;;5.70;;
21110;SDS011;10713;51.912;4.494;2023-08-30T04:01:33;12.25;;;5.65;;
21110;SDS011;10713;51.912;4.494;2023-08-30T04:03:58;10.25;;;5.05;;
21110;SDS011;10713;51.912;4.494;2023-08-30T04:06:23;12.55;;;5.18;;
21110;SDS011;10713;51.912;4.494;2023-08-30T04:08:49;12.77;;;5.53;;
21110;SDS011;10713;51.912;4.494;2023-08-30T04:11:14;10.63;;;5.60;;
21110;SDS011;10713;51.912;4.494;2023-08-30T04:13:39;10.73;;;4.80;;
21110;SDS011;10713;51.912;4.494;2023-08-30T04:16:05;12.20;;;5.60;;
21110;SDS011;10713;51.912;4.494;2023-08-30T04:18:30;11.40;;;5.32;;
21110;SDS011;10713;51.912;4.494;2023-08-30T04:20:56;10.73;;;5.35;;
21110;SDS011;10713;51.912;4.494;2023-08-30T04:23:23;9.90;;;5.43;;
21110;SDS011;10713;51.912;4.494;2023-08-30T04:25:48;13.48;;;5.63;;
21110;SDS011;10713;51.912;4.494;2023-08-30T04:28:13;11.63;;;5.13;;
21110;SDS011;10713;51.912;4.494;2023-08-30T04:30:39;21.23;;;6.18;;
21110;SDS011;10713;51.912;4.494;2023-08-30T04:33:04;20.75;;;6.18;;
21110;SDS011;10713;51.912;4.494;2023-08-30T04:35:31;14.15;;;6.03;;
21110;SDS011;10713;51.912;4.494;2023-08-30T04:37:57;17.10;;;6.57;;
21110;SDS011;10713;51.912;4.494;2023-08-30T04:40:24;13.02;;;6.07;;
21110;SDS011;10713;51.912;4.494;2023-08-30T04:42:49;12.15;;;5.78;;
21110;SDS011;10713;51.912;4.494;2023-08-30T04:45:15;13.02;;;5.68;;
21110;SDS011;10713;51.912;4.494;2023-08-30T04:47:40;14.35;;;6.57;;
21110;SDS011;10713;51.912;4.494;2023-08-30T04:50:08;13.85;;;6.30;;
21110;SDS011;10713;51.912;4.494;2023-08-30T04:52:33;12.73;;;6.47;;
21110;SDS011;10713;51.912;4.494;2023-08-30T04:54:59;12.50;;;5.45;;
21110;SDS011;10713;51.912;4.494;2023-08-30T04:57:24;15.07;;;6.07;;
21110;SDS011;10713;51.912;4.494;2023-08-30T04:59:50;12.25;;;5.95;;
21110;SDS011;10713;51.912;4.494;2023-08-30T05:02:15;11.82;;;5.95;;
21110;SDS011;10713;51.912;4.494;2023-08-30T05:04:40;10.60;;;5.93;;
21110;SDS011;10713;51.912;4.494;2023-08-30T05:07:07;17.70;;;5.88;;
21110;SDS011;10713;51.912;4.494;2023-08-30T05:09:32;14.48;;;6.40;;
21110;SDS011;10713;51.912;4.494;2023-08-30T05:11:59;14.70;;;5.90;;
21110;SDS011;10713;51.912;4.494;2023-08-30T05:14:24;10.90;;;5.60;;
21110;SDS011;10713;51.912;4.494;2023-08-30T05:16:50;11.38;;;6.07;;
21110;SDS011;10713;51.912;4.494;2023-08-30T05:19:15;14.20;;;6.60;;
21110;SDS011;10713;51.912;4.494;2023-08-30T05:21:43;14.70;;;6.13;;
21110;SDS011;10713;51.912;4.494;2023-08-30T05:24:09;14.30;;;5.45;;
21110;SDS011;10713;51.912;4.494;2023-08-30T05:26:35;14.70;;;6.50;;
21110;SDS011;10713;51.912;4.494;2023-08-30T05:29:00;13.27;;;5.82;;
21110;SDS011;10713;51.912;4.494;2023-08-30T05:31:26;15.25;;;6.80;;
21110;SDS011;10713;51.912;4.494;2023-08-30T05:33:51;12.15;;;6.28;;
21110;SDS011;10713;51.912;4.494;2023-08-30T05:36:17;12.60;;;5.93;;
21110;SDS011;10713;51.912;4.494;2023-08-30T05:38:43;18.83;;;6.82;;
21110;SDS011;10713;51.912;4.494;2023-08-30T05:41:08;13.82;;;6.47;;
21110;SDS011;10713;51.912;4.494;2023-08-30T05:43:34;12.90;;;6.05;;
21110;SDS011;10713;51.912;4.494;2023-08-30T05:45:59;13.27;;;6.15;;
21110;SDS011;10713;51.912;4.494;2023-08-30T05:48:27;18.63;;;7.38;;
21110;SDS011;10713;51.912;4.494;2023-08-30T05:50:53;12.40;;;5.90;;
21110;SDS011;10713;51.912;4.494;2023-08-30T05:53:19;15.93;;;6.22;;
21110;SDS011;10713;51.912;4.494;2023-08-30T05:55:44;13.15;;;5.93;;
21110;SDS011;10713;51.912;4.494;2023-08-30T05:58:09;17.33;;;6.70;;
21110;SDS011;10713;51.912;4.494;2023-08-30T06:00:35;18.05;;;6.55;;
21110;SDS011;10713;51.912;4.494;2023-08-30T06:03:00;13.75;;;6.10;;
21110;SDS011;10713;51.912;4.494;2023-08-30T06:05:26;13.63;;;4.82;;
21110;SDS011;10713;51.912;4.494;2023-08-30T06:07:51;16.58;;;7.03;;
21110;SDS011;10713;51.912;4.494;2023-08-30T06:10:17;13.50;;;6.13;;
21110;SDS011;10713;51.912;4.494;2023-08-30T06:12:42;14.52;;;6.05;;
21110;SDS011;10713;51.912;4.494;2023-08-30T06:15:08;12.77;;;5.38;;
21110;SDS011;10713;51.912;4.494;2023-08-30T06:17:33;14.90;;;6.32;;
21110;SDS011;10713;51.912;4.494;2023-08-30T06:19:58;12.88;;;6.07;;
21110;SDS011;10713;51.912;4.494;2023-08-30T06:22:24;15.80;;;5.50;;
21110;SDS011;10713;51.912;4.494;2023-08-30T06:24:49;12.48;;;6.13;;
21110;SDS011;10713;51.912;4.494;2023-08-30T06:27:15;15.35;;;5.53;;
21110;SDS011;10713;51.912;4.494;2023-08-30T06:29:40;8.60;;;4.53;;
21110;SDS011;10713;51.912;4.494;2023-08-30T06:32:05;12.00;;;5.30;;
21110;SDS011;10713;51.912;4.494;2023-08-30T06:34:31;9.13;;;4.55;;
21110;SDS011;10713;51.912;4.494;2023-08-30T06:36:56;14.48;;;5.85;;
21110;SDS011;10713;51.912;4.494;2023-08-30T06:39:21;12.25;;;5.57;;
21110;SDS011;10713;51.912;4.494;2023-08-30T06:41:47;13.75;;;6.22;;
21110;SDS011;10713;51.912;4.494;2023-08-30T06:44:12;12.63;;;5.63;;
21110;SDS011;10713;51.912;4.494;2023-08-30T06:46:38;12.15;;;6.57;;
21110;SDS011;10713;51.912;4.494;2023-08-30T06:49:04;11.82;;;5.45;;
21110;SDS011;10713;51.912;4.494;2023-08-30T06:51:30;13.57;;;6.15;;
21110;SDS011;10713;51.912;4.494;2023-08-30T06:53:56;13.95;;;6.05;;
21110;SDS011;10713;51.912;4.494;2023-08-30T06:56:25;18.45;;;7.53;;
21110;SDS011;10713;51.912;4.494;2023-08-30T06:58:51;15.43;;;7.38;;
21110;SDS011;10713;51.912;4.494;2023-08-30T07:01:16;11.68;;;5.45;;
21110;SDS011;10713;51.912;4.494;2023-08-30T07:03:41;16.23;;;6.65;;
21110;SDS011;10713;51.912;4.494;2023-08-30T07:06:08;12.13;;;5.72;;
21110;SDS011;10713;51.912;4.494;2023-08-30T07:08:34;10.15;;;5.28;;
21110;SDS011;10713;51.912;4.494;2023-08-30T07:10:59;9.63;;;4.72;;
21110;SDS011;10713;51.912;4.494;2023-08-30T07:13:25;10.35;;;4.65;;
21110;SDS011;10713;51.912;4.494;2023-08-30T07:15:50;10.85;;;4.72;;
21110;SDS011;10713;51.912;4.494;2023-08-30T07:18:16;11.15;;;4.70;;
21110;SDS011;10713;51.912;4.494;2023-08-30T07:20:41;9.23;;;4.15;;
21110;SDS011;10713;51.912;4.494;2023-08-30T07:23:06;9.07;;;4.53;;
21110;SDS011;10713;51.912;4.494;2023-08-30T07:25:32;8.30;;;3.92;;
21110;SDS011;10713;51.912;4.494;2023-08-30T07:27:58;10.13;;;4.35;;
21110;SDS011;10713;51.912;4.494;2023-08-30T07:30:24;11.02;;;5.55;;
21110;SDS011;10713;51.912;4.494;2023-08-30T07:32:49;11.50;;;4.60;;
21110;SDS011;10713;51.912;4.494;2023-08-30T07:35:15;7.78;;;3.97;;
21110;SDS011;10713;51.912;4.494;2023-08-30T07:37:40;8.05;;;3.90;;
21110;SDS011;10713;51.912;4.494;2023-08-30T07:40:06;8.23;;;4.63;;
21110;SDS011;10713;51.912;4.494;2023-08-30T07:42:32;11.45;;;4.82;;
21110;SDS011;10713;51.912;4.494;2023-08-30T07:44:57;9.73;;;4.03;;
21110;SDS011;10713;51.912;4.494;2023-08-30T07:47:22;8.13;;;4.45;;
21110;SDS011;10713;51.912;4.494;2023-08-30T07:49:48;9.77;;;5.05;;
21110;SDS011;10713;51.912;4.494;2023-08-30T07:52:13;17.05;;;5.97;;
21110;SDS011;10713;51.912;4.494;2023-08-30T07:54:39;10.73;;;5.40;;
21110;SDS011;10713;51.912;4.494;2023-08-30T07:57:05;10.38;;;5.55;;
21110;SDS011;10713;51.912;4.494;2023-08-30T07:59:37;10.57;;;5.63;;
21110;SDS011;10713;51.912;4.494;2023-08-30T08:02:04;11.93;;;5.70;;
21110;SDS011;10713;51.912;4.494;2023-08-30T08:04:31;10.13;;;5.68;;
21110;SDS011;10713;51.912;4.494;2023-08-30T08:06:57;11.68;;;6.20;;
21110;SDS011;10713;51.912;4.494;2023-08-30T08:09:22;11.35;;;6.20;;
21110;SDS011;10713;51.912;4.494;2023-08-30T08:11:48;14.73;;;6.15;;
21110;SDS011;10713;51.912;4.494;2023-08-30T08:14:14;12.20;;;6.05;;
21110;SDS011;10713;51.912;4.494;2023-08-30T08:16:39;11.77;;;6.30;;
21110;SDS011;10713;51.912;4.494;2023-08-30T08:19:05;12.13;;;5.75;;
21110;SDS011;10713;51.912;4.494;2023-08-30T08:21:32;12.05;;;6.07;;
21110;SDS011;10713;51.912;4.494;2023-08-30T08:23:57;12.13;;;6.47;;
21110;SDS011;10713;51.912;4.494;2023-08-30T08:26:23;10.05;;;5.20;;
21110;SDS011;10713;51.912;4.494;2023-08-30T08:28:48;10.52;;;5.68;;
21110;SDS011;10713;51.912;4.494;2023-08-30T08:31:14;10.52;;;5.63;;
21110;SDS011;10713;51.912;4.494;2023-08-30T08:33:40;10.40;;;5.20;;
21110;SDS011;10713;51.912;4.494;2023-08-30T08:36:05;19.25;;;6.43;;
21110;SDS011;10713;51.912;4.494;2023-08-30T08:38:30;11.98;;;5.93;;
21110;SDS011;10713;51.912;4.494;2023-08-30T08:41:03;8.80;;;5.28;;
21110;SDS011;10713;51.912;4.494;2023-08-30T08:43:30;8.35;;;4.78;;
21110;SDS011;10713;51.912;4.494;2023-08-30T08:45:59;12.13;;;4.60;;
21110;SDS011;10713;51.912;4.494;2023-08-30T08:48:25;17.13;;;5.18;;
21110;SDS011;10713;51.912;4.494;2023-08-30T08:50:53;11.13;;;3.55;;
21110;SDS011;10713;51.912;4.494;2023-08-30T08:53:19;9.23;;;3.33;;
21110;SDS011;10713;51.912;4.494;2023-08-30T08:55:46;9.65;;;2.67;;
21110;SDS011;10713;51.912;4.494;2023-08-30T08:58:12;3.40;;;2.10;;
21110;SDS011;10713;51.912;4.494;2023-08-30T09:00:39;3.40;;;2.10;;
21110;SDS011;10713;51.912;4.494;2023-08-30T09:03:07;5.57;;;2.65;;
21110;SDS011;10713;51.912;4.494;2023-08-30T09:05:33;6.18;;;2.10;;
21110;SDS011;10713;51.912;4.494;2023-08-30T09:08:02;4.25;;;2.00;;
21110;SDS011;10713;51.912;4.494;2023-08-30T09:10:28;8.75;;;2.55;;
21110;SDS011;10713;51.912;4.494;2023-08-30T09:12:53;4.05;;;2.00;;
21110;SDS011;10713;51.912;4.494;2023-08-30T09:15:19;3.80;;;2.03;;
21110;SDS011;10713;51.912;4.494;2023-08-30T09:17:44;3.33;;;1.65;;
21110;SDS011;10713;51.912;4.494;2023-08-30T09:20:12;3.50;;;1.77;;
21110;SDS011;10713;51.912;4.494;2023-08-30T09:22:41;6.45;;;2.08;;
21110;SDS011;10713;51.912;4.494;2023-08-30T09:25:10;9.27;;;2.63;;
21110;SDS011;10713;51.912;4.494;2023-08-30T09:27:47;4.50;;;2.00;;
21110;SDS011;10713;51.912;4.494;2023-08-30T09:30:13;3.95;;;1.90;;
21110;SDS011;10713;51.912;4.494;2023-08-30T09:32:41;6.90;;;2.30;;
21110;SDS011;10713;51.912;4.494;2023-08-30T09:35:07;5.22;;;1.90;;
21110;SDS011;10713;51.912;4.494;2023-08-30T09:37:33;9.82;;;2.15;;
21110;SDS011;10713;51.912;4.494;2023-08-30T09:39:59;5.82;;;2.03;;
21110;SDS011;10713;51.912;4.494;2023-08-30T09:42:24;9.63;;;2.60;;
21110;SDS011;10713;51.912;4.494;2023-08-30T09:44:50;8.27;;;2.05;;
21110;SDS011;10713;51.912;4.494;2023-08-30T09:47:15;5.00;;;1.92;;
21110;SDS011;10713;51.912;4.494;2023-08-30T09:49:44;9.48;;;2.65;;
21110;SDS011;10713;51.912;4.494;2023-08-30T09:52:12;4.65;;;1.65;;
21110;SDS011;10713;51.912;4.494;2023-08-30T09:54:40;7.55;;;2.15;;
21110;SDS011;10713;51.912;4.494;2023-08-30T09:57:08;10.25;;;2.25;;
21110;SDS011;10713;51.912;4.494;2023-08-30T09:59:37;8.77;;;2.30;;
21110;SDS011;10713;51.912;4.494;2023-08-30T10:02:05;8.50;;;2.58;;
21110;SDS011;10713;51.912;4.494;2023-08-30T10:04:30;11.35;;;3.53;;
21110;SDS011;10713;51.912;4.494;2023-08-30T10:06:57;8.23;;;2.65;;
21110;SDS011;10713;51.912;4.494;2023-08-30T10:09:23;10.68;;;3.20;;
21110;SDS011;10713;51.912;4.494;2023-08-30T10:11:49;9.88;;;3.08;;
21110;SDS011;10713;51.912;4.494;2023-08-30T10:14:16;11.98;;;2.78;;
21110;SDS011;10713;51.912;4.494;2023-08-30T10:16:48;9.30;;;2.88;;
21110;SDS011;10713;51.912;4.494;2023-08-30T10:19:14;7.70;;;2.60;;
21110;SDS011;10713;51.912;4.494;2023-08-30T10:21:44;19.40;;;4.60;;
21110;SDS011;10713;51.912;4.494;2023-08-30T10:24:12;14.13;;;4.22;;
21110;SDS011;10713;51.912;4.494;2023-08-30T10:26:41;7.75;;;2.55;;
21110;SDS011;10713;51.912;4.494;2023-08-30T10:29:09;10.75;;;2.92;;
21110;SDS011;10713;51.912;4.494;2023-08-30T10:31:37;9.80;;;2.67;;
21110;SDS011;10713;51.912;4.494;2023-08-30T10:34:11;6.72;;;2.13;;
21110;SDS011;10713;51.912;4.494;2023-08-30T10:36:38;9.23;;;2.30;;
21110;SDS011;10713;51.912;4.494;2023-08-30T10:39:10;9.13;;;2.85;;
21110;SDS011;10713;51.912;4.494;2023-08-30T10:41:55;4.68;;;2.20;;
21110;SDS011;10713;51.912;4.494;2023-08-30T10:44:22;7.22;;;2.90;;
21110;SDS011;10713;51.912;4.494;2023-08-30T10:46:51;6.32;;;2.13;;
21110;SDS011;10713;51.912;4.494;2023-08-30T10:49:18;10.77;;;3.05;;
21110;SDS011;10713;51.912;4.494;2023-08-30T10:51:44;7.82;;;2.05;;
21110;SDS011;10713;51.912;4.494;2023-08-30T10:54:13;7.90;;;2.50;;
21110;SDS011;10713;51.912;4.494;2023-08-30T10:56:46;8.73;;;2.33;;
21110;SDS011;10713;51.912;4.494;2023-08-30T10:59:15;9.98;;;2.47;;
21110;SDS011;10713;51.912;4.494;2023-08-30T11:01:45;4.82;;;1.88;;
21110;SDS011;10713;51.912;4.494;2023-08-30T11:04:12;5.18;;;1.80;;
21110;SDS011;10713;51.912;4.494;2023-08-30T11:06:39;6.90;;;2.20;;
21110;SDS011;10713;51.912;4.494;2023-08-30T11:09:05;7.53;;;1.52;;
21110;SDS011;10713;51.912;4.494;2023-08-30T11:11:32;6.75;;;1.70;;
21110;SDS011;10713;51.912;4.494;2023-08-30T11:14:07;3.25;;;1.77;;
21110;SDS011;10713;51.912;4.494;2023-08-30T11:16:34;8.90;;;2.58;;
21110;SDS011;10713;51.912;4.494;2023-08-30T11:19:00;4.13;;;1.70;;
21110;SDS011;10713;51.912;4.494;2023-08-30T11:21:28;5.47;;;2.03;;
21110;SDS011;10713;51.912;4.494;2023-08-30T11:23:54;9.43;;;1.80;;
21110;SDS011;10713;51.912;4.494;2023-08-30T11:26:19;7.05;;;1.63;;
21110;SDS011;10713;51.912;4.494;2023-08-30T11:28:45;4.15;;;1.40;;
21110;SDS011;10713;51.912;4.494;2023-08-30T11:31:19;8.15;;;1.70;;
21110;SDS011;10713;51.912;4.494;2023-08-30T11:33:55;7.85;;;2.10;;
21110;SDS011;10713;51.912;4.494;2023-08-30T11:36:22;11.02;;;1.85;;
21110;SDS011;10713;51.912;4.494;2023-08-30T11:38:51;2.65;;;1.20;;
21110;SDS011;10713;51.912;4.494;2023-08-30T11:41:19;7.78;;;1.60;;
21110;SDS011;10713;51.912;4.494;2023-08-30T11:43:45;5.25;;;1.60;;
21110;SDS011;10713;51.912;4.494;2023-08-30T11:46:12;26.38;;;3.65;;
21110;SDS011;10713;51.912;4.494;2023-08-30T11:48:38;6.03;;;1.48;;
21110;SDS011;10713;51.912;4.494;2023-08-30T11:51:05;12.23;;;2.83;;
21110;SDS011;10713;51.912;4.494;2023-08-30T11:53:31;6.05;;;1.55;;
21110;SDS011;10713;51.912;4.494;2023-08-30T11:55:57;7.93;;;1.60;;
21110;SDS011;10713;51.912;4.494;2023-08-30T11:58:23;6.78;;;1.60;;
21110;SDS011;10713;51.912;4.494;2023-08-30T12:00:52;8.85;;;1.85;;
21110;SDS011;10713;51.912;4.494;2023-08-30T12:03:21;3.58;;;1.50;;
21110;SDS011;10713;51.912;4.494;2023-08-30T12:05:47;5.95;;;1.58;;
21110;SDS011;10713;51.912;4.494;2023-08-30T12:08:20;10.00;;;1.70;;
21110;SDS011;10713;51.912;4.494;2023-08-30T12:10:46;4.15;;;1.40;;
21110;SDS011;10713;51.912;4.494;2023-08-30T12:15:54;8.63;;;1.90;;
21110;SDS011;10713;51.912;4.494;2023-08-30T12:18:26;5.18;;;1.63;;
21110;SDS011;10713;51.912;4.494;2023-08-30T12:21:03;5.57;;;1.60;;
21110;SDS011;10713;51.912;4.494;2023-08-30T12:23:32;3.60;;;1.52;;
21110;SDS011;10713;51.912;4.494;2023-08-30T12:28:26;5.82;;;1.70;;
21110;SDS011;10713;51.912;4.494;2023-08-30T12:30:53;2.90;;;1.13;;
21110;SDS011;10713;51.912;4.494;2023-08-30T12:33:18;8.65;;;1.90;;
21110;SDS011;10713;51.912;4.494;2023-08-30T12:35:44;4.97;;;1.65;;
21110;SDS011;10713;51.912;4.494;2023-08-30T12:38:10;4.28;;;1.33;;
21110;SDS011;10713;51.912;4.494;2023-08-30T12:40:37;6.47;;;2.03;;
21110;SDS011;10713;51.912;4.494;2023-08-30T12:43:02;4.50;;;1.75;;
21110;SDS011;10713;51.912;4.494;2023-08-30T12:45:28;5.45;;;1.90;;
21110;SDS011;10713;51.912;4.494;2023-08-30T12:47:54;4.70;;;1.75;;
21110;SDS011;10713;51.912;4.494;2023-08-30T12:50:20;3.78;;;1.73;;
21110;SDS011;10713;51.912;4.494;2023-08-30T12:52:46;4.40;;;1.77;;
21110;SDS011;10713;51.912;4.494;2023-08-30T12:55:12;5.25;;;1.55;;
21110;SDS011;10713;51.912;4.494;2023-08-30T12:57:37;6.07;;;1.38;;
21110;SDS011;10713;51.912;4.494;2023-08-30T13:00:02;5.22;;;1.98;;
21110;SDS011;10713;51.912;4.494;2023-08-30T13:02:28;7.47;;;2.05;;
21110;SDS011;10713;51.912;4.494;2023-08-30T13:04:53;11.05;;;2.00;;
21110;SDS011;10713;51.912;4.494;2023-08-30T13:07:19;6.77;;;1.23;;
21110;SDS011;10713;51.912;4.494;2023-08-30T13:09:44;3.50;;;1.50;;
21110;SDS011;10713;51.912;4.494;2023-08-30T13:12:09;7.13;;;1.50;;
21110;SDS011;10713;51.912;4.494;2023-08-30T13:14:35;4.10;;;1.60;;
21110;SDS011;10713;51.912;4.494;2023-08-30T13:17:00;6.68;;;1.80;;
21110;SDS011;10713;51.912;4.494;2023-08-30T13:19:25;3.22;;;1.50;;
21110;SDS011;10713;51.912;4.494;2023-08-30T13:21:51;3.58;;;1.30;;
21110;SDS011;10713;51.912;4.494;2023-08-30T13:24:16;4.97;;;1.63;;
21110;SDS011;10713;51.912;4.494;2023-08-30T13:26:41;4.32;;;1.45;;
21110;SDS011;10713;51.912;4.494;2023-08-30T13:29:07;4.65;;;1.58;;
21110;SDS011;10713;51.912;4.494;2023-08-30T13:31:32;2.70;;;1.40;;
21110;SDS011;10713;51.912;4.494;2023-08-30T13:33:57;5.22;;;1.80;;
21110;SDS011;10713;51.912;4.494;2023-08-30T13:36:24;8.13;;;1.58;;
21110;SDS011;10713;51.912;4.494;2023-08-30T13:38:49;5.80;;;2.00;;
21110;SDS011;10713;51.912;4.494;2023-08-30T13:41:14;7.47;;;1.85;;
21110;SDS011;10713;51.912;4.494;2023-08-30T13:43:40;10.23;;;1.75;;
21110;SDS011;10713;51.912;4.494;2023-08-30T13:46:05;4.13;;;1.63;;
21110;SDS011;10713;51.912;4.494;2023-08-30T13:48:30;7.65;;;1.75;;
21110;SDS011;10713;51.912;4.494;2023-08-30T13:50:56;5.38;;;1.45;;
21110;SDS011;10713;51.912;4.494;2023-08-30T13:53:21;3.88;;;1.65;;
21110;SDS011;10713;51.912;4.494;2023-08-30T13:55:46;5.20;;;1.63;;
21110;SDS011;10713;51.912;4.494;2023-08-30T13:58:13;7.00;;;1.83;;
21110;SDS011;10713;51.912;4.494;2023-08-30T14:00:39;8.73;;;1.67;;
21110;SDS011;10713;51.912;4.494;2023-08-30T14:03:04;1.92;;;1.20;;
21110;SDS011;10713;51.912;4.494;2023-08-30T14:05:30;3.25;;;1.20;;
21110;SDS011;10713;51.912;4.494;2023-08-30T14:07:55;3.60;;;1.40;;
21110;SDS011;10713;51.912;4.494;2023-08-30T14:10:21;3.30;;;0.98;;
21110;SDS011;10713;51.912;4.494;2023-08-30T14:12:46;6.35;;;1.30;;
21110;SDS011;10713;51.912;4.494;2023-08-30T14:15:12;5.55;;;1.13;;
21110;SDS011;10713;51.912;4.494;2023-08-30T14:17:37;3.15;;;1.30;;
21110;SDS011;10713;51.912;4.494;2023-08-30T14:20:03;3.67;;;1.60;;
21110;SDS011;10713;51.912;4.494;2023-08-30T14:22:28;3.38;;;1.42;;
21110;SDS011;10713;51.912;4.494;2023-08-30T14:24:54;6.57;;;1.48;;
21110;SDS011;10713;51.912;4.494;2023-08-30T14:27:19;3.70;;;1.13;;
21110;SDS011;10713;51.912;4.494;2023-08-30T14:29:44;2.88;;;1.30;;
21110;SDS011;10713;51.912;4.494;2023-08-30T14:32:09;5.07;;;1.27;;
21110;SDS011;10713;51.912;4.494;2023-08-30T14:34:35;5.05;;;1.23;;
21110;SDS011;10713;51.912;4.494;2023-08-30T14:37:00;6.72;;;1.33;;
21110;SDS011;10713;51.912;4.494;2023-08-30T14:39:25;6.13;;;1.33;;
21110;SDS011;10713;51.912;4.494;2023-08-30T14:41:51;3.38;;;1.13;;
21110;SDS011;10713;51.912;4.494;2023-08-30T14:44:16;3.30;;;1.20;;
21110;SDS011;10713;51.912;4.494;2023-08-30T14:46:41;15.40;;;3.10;;